Time;durP1;ratioP1;P1;durP2;ratioP2;P2;SDS_P1;SDS_P2;PMS_P1;PMS_P2;Temp;Humidity;BMP_temperature;BMP_pressure;BME280_temperature;BME280_humidity;BME280_pressure;Samples;Min_cycle;Max_cycle;Signal;HPM_P1;HPM_P2
2022/01/05 00:02:08;;;;;;;24.23;3.88;;;;;;;-145.67;100.00;66521.78;5005006;28;20524;-70
2022/01/05 00:04:34;;;;;;;25.45;4.47;;;;;;;-145.67;100.00;66521.78;5004750;28;20729;-70
2022/01/05 00:07:00;;;;;;;25.70;4.38;;;;;;;-145.67;100.00;66521.78;4995303;28;20537;-70
2022/01/05 00:09:26;;;;;;;25.08;3.97;;;;;;;-145.67;100.00;66521.78;5010406;28;20156;-68
2022/01/05 00:11:51;;;;;;;34.17;6.18;;;;;;;-145.67;100.00;66521.78;5000216;28;20121;-69
2022/01/05 00:14:17;;;;;;;34.50;5.32;;;;;;;-145.67;100.00;66521.78;4978352;28;20060;-69
2022/01/05 00:16:42;;;;;;;35.35;4.75;;;;;;;-145.67;100.00;66521.78;4995558;28;20460;-69
2022/01/05 00:19:11;;;;;;;33.38;5.05;;;;;;;-145.67;100.00;66521.78;4994906;28;20029;-70
2022/01/05 00:21:40;;;;;;;31.38;4.63;;;;;;;-145.67;100.00;66521.78;4995140;28;20033;-69
2022/01/05 00:24:07;;;;;;;24.05;4.07;;;;;;;-145.67;100.00;66521.78;4995001;28;20038;-71
2022/01/05 00:26:35;;;;;;;34.05;4.93;;;;;;;-145.67;100.00;66521.78;4995562;28;20041;-68
2022/01/05 00:29:01;;;;;;;28.05;4.05;;;;;;;-145.67;100.00;66521.78;4995037;28;20056;-71
2022/01/05 00:31:26;;;;;;;21.65;3.22;;;;;;;-145.67;100.00;66521.78;5010307;28;20037;-70
2022/01/05 00:33:55;;;;;;;29.20;4.70;;;;;;;-145.67;100.00;66521.78;4994232;28;20481;-68
2022/01/05 00:36:23;;;;;;;29.27;4.38;;;;;;;-145.67;100.00;66521.78;4993596;28;20068;-70
2022/01/05 00:38:49;;;;;;;20.75;3.58;;;;;;;-145.67;100.00;66521.78;4994662;28;20620;-70
2022/01/05 00:41:15;;;;;;;24.17;3.85;;;;;;;-145.67;100.00;66521.78;4994231;28;20053;-70
2022/01/05 00:43:41;;;;;;;26.92;4.75;;;;;;;-145.67;100.00;66521.78;5004813;28;20419;-69
2022/01/05 00:46:07;;;;;;;23.90;3.90;;;;;;;-145.67;100.00;66521.78;4995258;28;20095;-69
2022/01/05 00:48:34;;;;;;;28.48;4.25;;;;;;;-145.67;100.00;66521.78;4994552;28;20061;-69
2022/01/05 00:51:05;;;;;;;29.15;4.80;;;;;;;-145.67;100.00;66521.78;5004197;28;20052;-69
2022/01/05 00:53:33;;;;;;;38.80;5.10;;;;;;;-145.67;100.00;66521.78;4994665;28;20042;-69
2022/01/05 00:56:02;;;;;;;29.10;6.18;;;;;;;-145.67;100.00;66521.78;4993453;28;20045;-68
2022/01/05 00:58:30;;;;;;;33.03;4.80;;;;;;;-145.67;100.00;66521.78;5009539;28;20034;-70
2022/01/05 01:00:56;;;;;;;33.25;4.68;;;;;;;-145.67;100.00;66521.78;4998343;28;20032;-70
2022/01/05 01:03:22;;;;;;;33.47;4.55;;;;;;;-145.67;100.00;66521.78;4994314;28;20037;-68
2022/01/05 01:05:47;;;;;;;25.05;3.75;;;;;;;-145.67;100.00;66521.78;5009378;28;20109;-70
2022/01/05 01:08:13;;;;;;;25.17;4.97;;;;;;;-145.67;100.00;66521.78;4994450;28;20490;-70
2022/01/05 01:10:41;;;;;;;37.38;7.03;;;;;;;-145.67;100.00;66521.78;5009061;28;20041;-70
2022/01/05 01:13:07;;;;;;;31.50;5.32;;;;;;;-145.67;100.00;66521.78;5009654;28;20311;-70
2022/01/05 01:15:34;;;;;;;27.90;4.35;;;;;;;-145.67;100.00;66521.78;4994519;28;20017;-68
2022/01/05 01:18:00;;;;;;;35.35;5.53;;;;;;;-145.67;100.00;66521.78;4994056;28;20041;-70
2022/01/05 01:20:28;;;;;;;27.17;4.90;;;;;;;-145.67;100.00;66521.78;4993663;28;20037;-70
2022/01/05 01:22:53;;;;;;;28.10;4.22;;;;;;;-145.67;100.00;66521.78;4994019;28;20129;-70
2022/01/05 01:25:21;;;;;;;30.98;4.40;;;;;;;-145.67;100.00;66521.78;4994072;28;20131;-70
2022/01/05 01:27:47;;;;;;;35.80;5.07;;;;;;;-145.67;100.00;66521.78;4994266;28;20048;-70
2022/01/05 01:30:12;;;;;;;31.00;5.18;;;;;;;-145.67;100.00;66521.78;4994138;28;20030;-71
2022/01/05 01:32:38;;;;;;;32.58;5.18;;;;;;;-145.67;100.00;66521.78;4994340;28;20466;-70
2022/01/05 01:35:08;;;;;;;36.03;5.03;;;;;;;-145.67;100.00;66521.78;4993469;28;20034;-68
2022/01/05 01:37:33;;;;;;;29.20;4.75;;;;;;;-145.67;100.00;66521.78;4993889;28;20421;-71
2022/01/05 01:39:59;;;;;;;25.25;5.28;;;;;;;-145.67;100.00;66521.78;4993836;28;21878;-70
2022/01/05 01:42:25;;;;;;;40.65;5.45;;;;;;;-145.67;100.00;66521.78;4994228;28;20472;-71
2022/01/05 01:44:50;;;;;;;33.50;5.13;;;;;;;-145.67;100.00;66521.78;4994105;28;20254;-69
2022/01/05 01:47:16;;;;;;;34.75;5.60;;;;;;;-145.67;100.00;66521.78;4993945;28;20038;-69
2022/01/05 01:49:42;;;;;;;34.17;5.88;;;;;;;-145.67;100.00;66521.78;4992837;28;20038;-70
2022/01/05 01:52:07;;;;;;;32.10;5.72;;;;;;;-145.67;100.00;66521.78;4981286;28;20398;-70
2022/01/05 01:54:35;;;;;;;34.15;6.50;;;;;;;-145.67;100.00;66521.78;5007945;28;20144;-69
2022/01/05 01:57:03;;;;;;;30.90;4.85;;;;;;;-145.67;100.00;66521.78;4994414;28;20044;-69
2022/01/05 01:59:29;;;;;;;32.00;5.30;;;;;;;-145.67;100.00;66521.78;4993967;28;20113;-69
2022/01/05 02:01:57;;;;;;;46.40;7.45;;;;;;;-145.67;100.00;66521.78;4997407;28;22230;-70
2022/01/05 02:04:25;;;;;;;36.92;5.80;;;;;;;-145.67;100.00;66521.78;4992144;28;20045;-70
2022/01/05 02:06:51;;;;;;;36.53;6.15;;;;;;;-145.67;100.00;66521.78;4987648;28;20065;-71
2022/01/05 02:09:19;;;;;;;30.85;5.07;;;;;;;-145.67;100.00;66521.78;4999310;28;20034;-70
2022/01/05 02:11:45;;;;;;;37.10;5.65;;;;;;;-145.67;100.00;66521.78;4992746;28;20034;-70
2022/01/05 02:14:11;;;;;;;31.50;5.25;;;;;;;-145.67;100.00;66521.78;5003782;28;20160;-70
2022/01/05 02:16:40;;;;;;;35.60;6.82;;;;;;;-145.67;100.00;66521.78;4993283;28;20033;-70
2022/01/05 02:19:06;;;;;;;33.30;4.85;;;;;;;-145.67;100.00;66521.78;4984291;28;20284;-69
2022/01/05 02:21:37;;;;;;;32.92;5.28;;;;;;;-145.67;100.00;66521.78;4993113;28;20084;-70
2022/01/05 02:24:04;;;;;;;28.63;5.03;;;;;;;-145.67;100.00;66521.78;5002876;28;20044;-70
2022/01/05 02:26:29;;;;;;;32.75;5.10;;;;;;;-145.67;100.00;66521.78;5008599;28;20398;-70
2022/01/05 02:28:57;;;;;;;33.55;5.90;;;;;;;-145.67;100.00;66521.78;4993745;28;20034;-70
2022/01/05 02:31:25;;;;;;;37.22;5.72;;;;;;;-145.67;100.00;66521.78;5003511;28;20042;-70
2022/01/05 02:33:51;;;;;;;38.20;5.40;;;;;;;-145.67;100.00;66521.78;4996917;28;20073;-70
2022/01/05 02:36:21;;;;;;;40.78;5.70;;;;;;;-145.67;100.00;66521.78;4980640;28;20038;-69
2022/01/05 02:38:51;;;;;;;38.85;5.40;;;;;;;-145.67;100.00;66521.78;5002776;28;20532;-70
2022/01/05 02:41:17;;;;;;;38.35;5.32;;;;;;;-145.67;100.00;66521.78;5008575;28;20194;-70
2022/01/05 02:43:44;;;;;;;33.97;6.85;;;;;;;-145.67;100.00;66521.78;5002804;28;20050;-70
2022/01/05 02:46:14;;;;;;;40.35;5.75;;;;;;;-145.67;100.00;66521.78;5008982;28;20592;-70
2022/01/05 02:48:43;;;;;;;31.52;5.82;;;;;;;-145.67;100.00;66521.78;5007871;28;20120;-70
2022/01/05 02:51:10;;;;;;;34.35;5.18;;;;;;;-145.67;100.00;66521.78;5008275;28;20701;-70
2022/01/05 02:53:35;;;;;;;41.17;5.55;;;;;;;-145.67;100.00;66521.78;4999972;28;20040;-70
2022/01/05 02:56:01;;;;;;;35.70;5.68;;;;;;;-145.67;100.00;66521.78;4993301;28;20861;-70
2022/01/05 02:58:29;;;;;;;36.38;5.70;;;;;;;-145.67;100.00;66521.78;4998447;28;20091;-71
2022/01/05 03:01:00;;;;;;;42.13;6.32;;;;;;;-145.67;100.00;66521.78;5007974;28;20049;-69
2022/01/05 03:03:28;;;;;;;35.90;5.45;;;;;;;-145.67;100.00;66521.78;5006022;28;20405;-70
2022/01/05 03:05:53;;;;;;;30.70;4.97;;;;;;;-145.67;100.00;66521.78;5011244;28;20034;-70
2022/01/05 03:08:22;;;;;;;37.38;6.15;;;;;;;-145.67;100.00;66521.78;4990380;28;20662;-70
2022/01/05 03:10:50;;;;;;;41.90;6.20;;;;;;;-145.67;100.00;66521.78;4996774;28;20033;-70
2022/01/05 03:13:16;;;;;;;39.47;6.95;;;;;;;-145.67;100.00;66521.78;4995091;28;20137;-72
2022/01/05 03:15:41;;;;;;;45.40;6.82;;;;;;;-145.67;100.00;66521.78;5006132;28;20037;-73
2022/01/05 03:18:09;;;;;;;41.10;5.97;;;;;;;-145.67;100.00;66521.78;4996313;28;20045;-72
2022/01/05 03:20:34;;;;;;;28.27;4.45;;;;;;;-145.67;100.00;66521.78;5002438;28;20037;-72
2022/01/05 03:23:01;;;;;;;31.30;5.05;;;;;;;-145.67;100.00;66521.78;4996617;28;20030;-71
2022/01/05 03:25:27;;;;;;;32.42;5.57;;;;;;;-145.67;100.00;66521.78;4995340;28;20038;-71
2022/01/05 03:27:58;;;;;;;32.25;4.95;;;;;;;-145.67;100.00;66521.78;4994743;28;20034;-72
2022/01/05 03:30:26;;;;;;;52.20;6.40;;;;;;;-145.67;100.00;66521.78;4996702;28;20389;-72
2022/01/05 03:33:20;;;;;;;32.83;5.45;;;;;;;-145.67;100.00;66521.78;5011057;28;20087;-72
2022/01/05 03:35:46;;;;;;;33.60;4.88;;;;;;;-145.67;100.00;66521.78;4995817;28;20029;-73
2022/01/05 03:38:16;;;;;;;38.70;5.00;;;;;;;-145.67;100.00;66521.78;4988961;28;20030;-70
2022/01/05 03:40:45;;;;;;;40.90;6.28;;;;;;;-145.67;100.00;66521.78;5000216;28;20469;-71
2022/01/05 03:43:11;;;;;;;50.10;7.00;;;;;;;-145.67;100.00;66521.78;5010307;28;20091;-73
2022/01/05 03:45:40;;;;;;;40.63;7.03;;;;;;;-145.67;100.00;66521.78;5000406;28;20704;-72
2022/01/05 03:48:10;;;;;;;45.33;7.32;;;;;;;-145.67;100.00;66521.78;5001701;28;20038;-71
2022/01/05 03:50:39;;;;;;;33.22;5.38;;;;;;;-145.67;100.00;66521.78;5011049;28;20446;-72
2022/01/05 03:53:06;;;;;;;40.28;5.57;;;;;;;-145.67;100.00;66521.78;4995750;28;20497;-72
2022/01/05 03:55:33;;;;;;;33.78;5.45;;;;;;;-145.67;100.00;66521.78;5010808;28;20037;-73
2022/01/05 03:57:58;;;;;;;39.42;6.10;;;;;;;-145.67;100.00;66521.78;5005934;28;20155;-71
2022/01/05 04:00:28;;;;;;;35.58;5.97;;;;;;;-145.67;100.00;66521.78;4995151;28;20045;-73
2022/01/05 04:03:01;;;;;;;29.95;5.22;;;;;;;-145.67;100.00;66521.78;4993262;28;20193;-73
2022/01/05 04:05:28;;;;;;;30.98;4.93;;;;;;;-145.67;100.00;66521.78;4990374;28;20653;-72
2022/01/05 04:07:56;;;;;;;36.90;5.68;;;;;;;-145.67;100.00;66521.78;5000178;28;20034;-72
2022/01/05 04:10:22;;;;;;;43.42;7.15;;;;;;;-145.67;100.00;66521.78;5010176;28;20025;-73
2022/01/05 04:12:50;;;;;;;32.25;6.25;;;;;;;-145.67;100.00;66521.78;5010296;28;20033;-73
2022/01/05 04:15:19;;;;;;;42.92;6.40;;;;;;;-145.67;100.00;66521.78;4995424;28;20519;-73
2022/01/05 04:17:47;;;;;;;40.22;6.53;;;;;;;-145.67;100.00;66521.78;4984714;28;20084;-71
2022/01/05 04:20:15;;;;;;;35.72;6.43;;;;;;;-145.67;100.00;66521.78;4995135;28;20121;-71
2022/01/05 04:22:40;;;;;;;43.13;7.60;;;;;;;-145.67;100.00;66521.78;4985061;28;20049;-73
2022/01/05 04:25:06;;;;;;;43.85;5.38;;;;;;;-145.67;100.00;66521.78;4995445;28;20288;-72
2022/01/05 04:27:32;;;;;;;36.78;6.32;;;;;;;-145.67;100.00;66521.78;4998511;28;20040;-72
2022/01/05 04:29:58;;;;;;;29.98;5.05;;;;;;;-145.67;100.00;66521.78;4995966;28;20033;-71
2022/01/05 04:32:23;;;;;;;33.47;5.40;;;;;;;-145.67;100.00;66521.78;4994527;28;20124;-71
2022/01/05 04:34:49;;;;;;;43.63;5.68;;;;;;;-145.67;100.00;66521.78;4994753;28;20078;-70
2022/01/05 04:37:15;;;;;;;51.00;6.35;;;;;;;-145.67;100.00;66521.78;4994087;28;20030;-70
2022/01/05 04:39:41;;;;;;;38.08;6.30;;;;;;;-145.67;100.00;66521.78;5001133;28;20048;-70
2022/01/05 04:42:09;;;;;;;39.70;6.05;;;;;;;-145.67;100.00;66521.78;4993259;28;20085;-69
2022/01/05 04:44:34;;;;;;;36.50;6.20;;;;;;;-145.67;100.00;66521.78;4995310;28;20457;-69
2022/01/05 04:47:00;;;;;;;38.53;6.15;;;;;;;-145.67;100.00;66521.78;4994664;28;20509;-70
2022/01/05 04:49:26;;;;;;;35.80;6.38;;;;;;;-145.67;100.00;66521.78;4998247;28;20029;-71
2022/01/05 04:51:55;;;;;;;35.47;5.40;;;;;;;-145.67;100.00;66521.78;4995275;28;20045;-71
2022/01/05 04:54:23;;;;;;;29.80;5.30;;;;;;;-145.67;100.00;66521.78;4982929;28;20037;-70
2022/01/05 04:56:48;;;;;;;34.45;5.45;;;;;;;-145.67;100.00;66521.78;5009682;28;20033;-70
2022/01/05 04:59:14;;;;;;;35.58;4.78;;;;;;;-145.67;100.00;66521.78;4994135;28;20148;-70
2022/01/05 05:01:42;;;;;;;48.78;6.70;;;;;;;-145.67;100.00;66521.78;4992930;28;20275;-70
2022/01/05 05:04:07;;;;;;;41.50;6.78;;;;;;;-145.67;100.00;66521.78;4994468;28;20385;-70
2022/01/05 05:06:33;;;;;;;37.58;5.30;;;;;;;-145.67;100.00;66521.78;5009334;28;20048;-70
2022/01/05 05:08:58;;;;;;;39.95;6.10;;;;;;;-145.67;100.00;66521.78;4995299;28;20271;-71
2022/01/05 05:11:24;;;;;;;37.78;5.07;;;;;;;-145.67;100.00;66521.78;4994402;28;20034;-70
2022/01/05 05:13:52;;;;;;;41.80;6.32;;;;;;;-145.67;100.00;66521.78;4994388;28;20042;-71
2022/01/05 05:16:17;;;;;;;33.70;5.45;;;;;;;-145.67;100.00;66521.78;4994203;28;20085;-70
2022/01/05 05:18:43;;;;;;;34.80;6.18;;;;;;;-145.67;100.00;66521.78;5008635;28;20037;-71
2022/01/05 05:21:08;;;;;;;36.20;4.70;;;;;;;-145.67;100.00;66521.78;4994563;28;20130;-70
2022/01/05 05:23:34;;;;;;;47.13;6.40;;;;;;;-145.67;100.00;66521.78;4993444;28;20057;-70
2022/01/05 05:26:00;;;;;;;35.40;6.18;;;;;;;-145.67;100.00;66521.78;4993716;28;20053;-71
2022/01/05 05:28:25;;;;;;;46.17;5.97;;;;;;;-145.67;100.00;66521.78;4994517;28;20133;-70
2022/01/05 05:30:53;;;;;;;32.10;5.65;;;;;;;-145.67;100.00;66521.78;4993676;28;20044;-73
2022/01/05 05:33:21;;;;;;;35.95;5.95;;;;;;;-145.67;100.00;66521.78;4994240;28;20387;-72
2022/01/05 05:35:46;;;;;;;45.20;6.13;;;;;;;-145.67;100.00;66521.78;4994219;28;20025;-71
2022/01/05 05:38:15;;;;;;;38.22;5.90;;;;;;;-145.67;100.00;66521.78;4993865;28;20221;-70
2022/01/05 05:40:42;;;;;;;39.15;6.50;;;;;;;-145.67;100.00;66521.78;4994865;28;20466;-72
2022/01/05 05:43:09;;;;;;;41.80;6.25;;;;;;;-145.67;100.00;66521.78;4973736;28;20092;-72
2022/01/05 05:45:37;;;;;;;45.15;6.45;;;;;;;-145.67;100.00;66521.78;4992617;28;20120;-70
2022/01/05 05:48:03;;;;;;;53.25;8.80;;;;;;;-145.67;100.00;66521.78;4979373;28;20083;-73
2022/01/05 05:50:31;;;;;;;40.53;6.18;;;;;;;-145.67;100.00;66521.78;4994229;28;20034;-71
2022/01/05 05:52:56;;;;;;;40.50;6.55;;;;;;;-145.67;100.00;66521.78;4993929;28;20042;-73
2022/01/05 05:55:22;;;;;;;35.33;6.45;;;;;;;-145.67;100.00;66521.78;4983692;28;20044;-72
2022/01/05 05:57:47;;;;;;;40.95;6.57;;;;;;;-145.67;100.00;66521.78;4993874;28;20112;-72
2022/01/05 06:00:15;;;;;;;53.00;7.25;;;;;;;-145.67;100.00;66521.78;4993934;28;20059;-71
2022/01/05 06:02:41;;;;;;;53.58;7.13;;;;;;;-145.67;100.00;66521.78;4994231;28;20057;-71
2022/01/05 06:05:07;;;;;;;46.03;7.07;;;;;;;-145.67;100.00;66521.78;5002846;28;20044;-71
2022/01/05 06:07:33;;;;;;;44.65;7.57;;;;;;;-145.67;100.00;66521.78;4994251;28;20746;-71
2022/01/05 06:10:01;;;;;;;44.15;8.07;;;;;;;-145.67;100.00;66521.78;4999455;28;20088;-71
2022/01/05 06:12:31;;;;;;;43.58;6.20;;;;;;;-145.67;100.00;66521.78;4992495;28;20037;-71
2022/01/05 06:14:57;;;;;;;42.85;6.47;;;;;;;-145.67;100.00;66521.78;5003113;28;20037;-73
2022/01/05 06:17:26;;;;;;;36.20;6.40;;;;;;;-145.67;100.00;66521.78;4986955;28;20026;-72
2022/01/05 06:19:52;;;;;;;47.75;7.85;;;;;;;-145.67;100.00;66521.78;4993364;28;20045;-73
2022/01/05 06:22:18;;;;;;;34.92;5.70;;;;;;;-145.67;100.00;66521.78;4995229;28;20425;-71
2022/01/05 06:24:44;;;;;;;44.03;7.53;;;;;;;-145.67;100.00;66521.78;4993942;28;20033;-71
2022/01/05 06:27:11;;;;;;;51.70;7.13;;;;;;;-145.67;100.00;66521.78;4988277;28;20026;-71
2022/01/05 06:29:37;;;;;;;43.10;8.07;;;;;;;-145.67;100.00;66521.78;5008364;28;20583;-71
2022/01/05 06:32:04;;;;;;;47.03;7.30;;;;;;;-145.67;100.00;66521.78;4993040;28;20025;-71
2022/01/05 06:34:32;;;;;;;56.47;8.60;;;;;;;-145.67;100.00;66521.78;5008618;28;20630;-71
2022/01/05 06:36:58;;;;;;;51.03;7.45;;;;;;;-145.67;100.00;66521.78;5000626;28;20040;-71
2022/01/05 06:39:23;;;;;;;47.72;7.20;;;;;;;-145.67;100.00;66521.78;4996313;28;20080;-71
2022/01/05 06:41:49;;;;;;;43.72;7.50;;;;;;;-145.67;100.00;66521.78;4997155;28;20050;-71
2022/01/05 06:44:15;;;;;;;50.70;7.22;;;;;;;-145.67;100.00;66521.78;5012250;28;20088;-71
2022/01/05 06:46:40;;;;;;;48.72;6.80;;;;;;;-145.67;100.00;66521.78;4996857;28;20099;-71
2022/01/05 06:49:06;;;;;;;60.47;8.23;;;;;;;-145.67;100.00;66521.78;5001113;28;20092;-71
2022/01/05 06:51:31;;;;;;;57.50;9.00;;;;;;;-145.67;100.00;66521.78;4997478;28;20488;-70
2022/01/05 06:53:57;;;;;;;43.25;6.60;;;;;;;-145.67;100.00;66521.78;4996800;28;20184;-70
2022/01/05 06:56:23;;;;;;;48.85;7.93;;;;;;;-145.67;100.00;66521.78;4996037;28;20502;-70
2022/01/05 06:58:48;;;;;;;52.30;7.90;;;;;;;-145.67;100.00;66521.78;4994952;28;20035;-67
2022/01/05 07:01:16;;;;;;;48.92;8.05;;;;;;;-145.67;100.00;66521.78;4984162;28;20033;-68
2022/01/05 07:03:42;;;;;;;65.45;9.88;;;;;;;-145.67;100.00;66521.78;4999788;28;20022;-68
2022/01/05 07:06:10;;;;;;;72.00;10.60;;;;;;;-145.67;100.00;66521.78;4979779;28;20300;-67
2022/01/05 07:08:35;;;;;;;48.80;8.85;;;;;;;-145.67;100.00;66521.78;5006409;28;20053;-69
2022/01/05 07:11:01;;;;;;;54.10;7.50;;;;;;;-145.67;100.00;66521.78;4996923;28;20052;-70
2022/01/05 07:13:29;;;;;;;62.17;7.95;;;;;;;-145.67;100.00;66521.78;4994256;28;20081;-67
2022/01/05 07:15:56;;;;;;;41.03;7.35;;;;;;;-145.67;100.00;66521.78;4991854;28;20045;-69
2022/01/05 07:18:22;;;;;;;48.22;7.47;;;;;;;-145.67;100.00;66521.78;4996104;28;20657;-68
2022/01/05 07:20:48;;;;;;;57.92;8.82;;;;;;;-145.67;100.00;66521.78;5002696;28;20038;-69
2022/01/05 07:23:15;;;;;;;54.50;8.27;;;;;;;-145.67;100.00;66521.78;4996469;28;20065;-69
2022/01/05 07:25:41;;;;;;;59.65;8.05;;;;;;;-145.67;100.00;66521.78;4996033;28;20615;-69
2022/01/05 07:28:10;;;;;;;64.63;9.35;;;;;;;-145.67;100.00;66521.78;4996521;28;20132;-69
2022/01/05 07:30:36;;;;;;;56.80;9.93;;;;;;;-145.67;100.00;66521.78;5005714;28;20041;-70
2022/01/05 07:33:01;;;;;;;56.20;8.13;;;;;;;-145.67;100.00;66521.78;4996675;28;20497;-70
2022/01/05 07:35:27;;;;;;;57.50;7.85;;;;;;;-145.67;100.00;66521.78;4994810;28;20029;-70
2022/01/05 07:37:52;;;;;;;62.42;8.05;;;;;;;-145.67;100.00;66521.78;4996643;28;20049;-70
2022/01/05 07:40:18;;;;;;;57.50;8.95;;;;;;;-145.67;100.00;66521.78;4996163;28;20121;-69
2022/01/05 07:42:44;;;;;;;54.95;7.20;;;;;;;-145.67;100.00;66521.78;4994359;28;20061;-70
2022/01/05 07:45:12;;;;;;;53.47;8.05;;;;;;;-145.67;100.00;66521.78;4995999;28;20472;-70
2022/01/05 07:47:38;;;;;;;53.33;7.75;;;;;;;-145.67;100.00;66521.78;4995266;28;20056;-71
2022/01/05 07:50:06;;;;;;;52.58;9.30;;;;;;;-145.67;100.00;66521.78;4995307;28;20053;-71
2022/01/05 07:52:34;;;;;;;61.53;10.23;;;;;;;-145.67;100.00;66521.78;4996354;28;20045;-72
2022/01/05 07:55:01;;;;;;;61.13;9.98;;;;;;;-145.67;100.00;66521.78;5010800;28;20033;-71
2022/01/05 07:57:27;;;;;;;51.50;7.80;;;;;;;-145.67;100.00;66521.78;4995779;28;20742;-71
2022/01/05 07:59:52;;;;;;;70.07;10.65;;;;;;;-145.67;100.00;66521.78;5001519;28;20128;-70
2022/01/05 08:02:18;;;;;;;63.55;9.57;;;;;;;-145.67;100.00;66521.78;4995861;28;20029;-71
2022/01/05 08:04:48;;;;;;;63.90;8.10;;;;;;;-145.67;100.00;66521.78;4995426;28;20038;-71
2022/01/05 08:07:14;;;;;;;61.53;11.18;;;;;;;-145.67;100.00;66521.78;4996020;28;20030;-70
2022/01/05 08:09:40;;;;;;;65.22;9.57;;;;;;;-145.67;100.00;66521.78;5010163;28;21056;-69
2022/01/05 08:12:06;;;;;;;71.65;10.05;;;;;;;-145.67;100.00;66521.78;5010382;28;20573;-70
2022/01/05 08:14:32;;;;;;;67.95;10.30;;;;;;;-145.67;100.00;66521.78;4995565;28;20042;-68
2022/01/05 08:16:57;;;;;;;67.15;9.73;;;;;;;-145.67;100.00;66521.78;4995396;28;20032;-69
2022/01/05 08:19:25;;;;;;;87.50;12.18;;;;;;;-145.67;100.00;66521.78;4994257;28;20508;-67
2022/01/05 08:21:51;;;;;;;60.80;10.10;;;;;;;-145.67;100.00;66521.78;4996203;28;20439;-70
2022/01/05 08:24:19;;;;;;;71.90;10.27;;;;;;;-145.67;100.00;66521.78;4998955;28;20033;-69
2022/01/05 08:26:45;;;;;;;75.13;11.38;;;;;;;-145.67;100.00;66521.78;4999109;28;20036;-67
2022/01/05 08:29:10;;;;;;;71.13;10.90;;;;;;;-145.67;100.00;66521.78;4995274;28;20486;-68
2022/01/05 08:31:36;;;;;;;65.43;9.25;;;;;;;-145.67;100.00;66521.78;4993673;28;20469;-69
2022/01/05 08:34:01;;;;;;;70.95;10.77;;;;;;;-145.67;100.00;66521.78;4994957;28;20048;-70
2022/01/05 08:36:29;;;;;;;75.38;12.45;;;;;;;-145.67;100.00;66521.78;4995257;28;20030;-68
2022/01/05 08:38:55;;;;;;;60.30;8.52;;;;;;;-145.67;100.00;66521.78;4995299;28;20084;-69
2022/01/05 08:41:20;;;;;;;59.67;9.10;;;;;;;-145.67;100.00;66521.78;4999804;28;20091;-71
2022/01/05 08:43:46;;;;;;;63.45;10.27;;;;;;;-145.67;100.00;66521.78;4995224;28;20044;-70
2022/01/05 08:46:11;;;;;;;58.03;9.07;;;;;;;-145.67;100.00;66521.78;4999050;28;20038;-70
2022/01/05 08:48:40;;;;;;;86.32;11.63;;;;;;;-145.67;100.00;66521.78;4994400;28;20029;-70
2022/01/05 08:51:06;;;;;;;61.83;9.00;;;;;;;-145.67;100.00;66521.78;4995257;28;20096;-69
2022/01/05 08:53:32;;;;;;;70.18;10.60;;;;;;;-145.67;100.00;66521.78;4993311;28;20046;-70
2022/01/05 08:55:57;;;;;;;70.63;11.10;;;;;;;-145.67;100.00;66521.78;4994940;28;20025;-71
2022/01/05 08:58:25;;;;;;;44.67;8.27;;;;;;;-145.67;100.00;66521.78;4994605;28;20040;-69
2022/01/05 09:00:51;;;;;;;72.78;10.20;;;;;;;-145.67;100.00;66521.78;5008907;28;20033;-71
2022/01/05 09:03:17;;;;;;;56.40;8.27;;;;;;;-145.67;100.00;66521.78;5008724;28;20037;-69
2022/01/05 09:05:43;;;;;;;56.28;8.93;;;;;;;-145.67;100.00;66521.78;5009631;28;20028;-70
2022/01/05 09:08:09;;;;;;;51.95;7.75;;;;;;;-145.67;100.00;66521.78;4994850;28;20032;-70
2022/01/05 09:10:38;;;;;;;57.40;9.43;;;;;;;-145.67;100.00;66521.78;5010101;28;20410;-70
2022/01/05 09:13:06;;;;;;;67.53;9.70;;;;;;;-145.67;100.00;66521.78;4992614;28;20033;-70
2022/01/05 09:15:34;;;;;;;53.75;7.80;;;;;;;-145.67;100.00;66521.78;5009098;28;20091;-70
2022/01/05 09:18:02;;;;;;;63.97;10.43;;;;;;;-145.67;100.00;66521.78;4994252;28;20091;-70
2022/01/05 09:20:27;;;;;;;76.90;12.05;;;;;;;-145.67;100.00;66521.78;5009459;28;20343;-69
2022/01/05 09:22:55;;;;;;;84.35;11.60;;;;;;;-145.67;100.00;66521.78;4994602;28;20049;-70
2022/01/05 09:25:22;;;;;;;83.90;12.63;;;;;;;-145.67;100.00;66521.78;5001536;28;20076;-70
2022/01/05 09:27:48;;;;;;;56.22;8.38;;;;;;;-145.67;100.00;66521.78;4998253;28;20048;-69
2022/01/05 09:30:16;;;;;;;60.63;9.90;;;;;;;-145.67;100.00;66521.78;4993867;28;20091;-68
2022/01/05 09:32:42;;;;;;;68.10;10.75;;;;;;;-145.67;100.00;66521.78;5004130;28;20113;-68
2022/01/05 09:35:12;;;;;;;69.32;9.52;;;;;;;-145.67;100.00;66521.78;4993336;28;20033;-69
2022/01/05 09:37:50;;;;;;;67.85;11.25;;;;;;;-145.67;100.00;66521.78;4994842;28;20160;-70
2022/01/05 09:42:59;;;;;;;50.70;9.65;;;;;;;-145.67;100.00;66521.78;4994157;28;20568;-69
2022/01/05 09:45:28;;;;;;;58.72;10.43;;;;;;;-145.67;100.00;66521.78;5003669;28;20137;-70
2022/01/05 09:48:15;;;;;;;68.40;10.52;;;;;;;-145.67;100.00;66521.78;4992181;28;20038;-70
2022/01/05 09:51:12;;;;;;;77.45;12.30;;;;;;;-145.67;100.00;66521.78;4994138;28;20049;-67
2022/01/05 09:53:37;;;;;;;60.67;10.38;;;;;;;-145.67;100.00;66521.78;4992566;28;20097;-68
2022/01/05 09:56:04;;;;;;;58.35;10.18;;;;;;;-145.67;100.00;66521.78;4993783;28;20112;-68
2022/01/05 09:58:35;;;;;;;76.10;11.95;;;;;;;-145.67;100.00;66521.78;4994257;28;20467;-68
2022/01/05 10:01:22;;;;;;;78.65;13.95;;;;;;;-145.67;100.00;66521.78;4996991;28;20421;-69
2022/01/05 10:03:48;;;;;;;55.63;8.55;;;;;;;-145.67;100.00;66521.78;4992546;28;20030;-69
2022/01/05 10:06:21;;;;;;;84.25;12.05;;;;;;;-145.67;100.00;66521.78;4993280;28;20104;-69
2022/01/05 10:08:49;;;;;;;65.13;9.75;;;;;;;-145.67;100.00;66521.78;5003356;28;20377;-68
2022/01/05 10:11:14;;;;;;;62.58;10.80;;;;;;;-145.67;100.00;66521.78;5004329;28;20029;-69
2022/01/05 10:13:40;;;;;;;81.97;12.10;;;;;;;-145.67;100.00;66521.78;4997757;28;20055;-68
2022/01/05 10:16:08;;;;;;;49.38;7.25;;;;;;;-145.67;100.00;66521.78;5003346;28;20022;-70
2022/01/05 10:18:42;;;;;;;68.05;9.55;;;;;;;-145.67;100.00;66521.78;4997165;28;20037;-69
2022/01/05 10:21:14;;;;;;;100.82;13.35;;;;;;;-145.67;100.00;66521.78;4996895;28;20091;-70
2022/01/05 10:23:46;;;;;;;86.68;12.05;;;;;;;-145.67;100.00;66521.78;4991160;28;20092;-69
2022/01/05 10:26:30;;;;;;;59.60;9.90;;;;;;;-145.67;100.00;66521.78;4997763;28;20045;-68
2022/01/05 10:28:58;;;;;;;78.82;11.88;;;;;;;-145.67;100.00;66521.78;4997060;28;20458;-69
2022/01/05 10:31:27;;;;;;;74.43;11.90;;;;;;;-145.67;100.00;66521.78;4997577;28;20577;-68
2022/01/05 10:33:55;;;;;;;69.40;11.27;;;;;;;-145.67;100.00;66521.78;4995149;28;20026;-69
2022/01/05 10:36:21;;;;;;;69.60;9.55;;;;;;;-145.67;100.00;66521.78;5012100;28;20405;-69
2022/01/05 10:39:07;;;;;;;63.65;9.32;;;;;;;-145.67;100.00;66521.78;4997231;28;20034;-68
2022/01/05 10:41:36;;;;;;;61.13;8.95;;;;;;;-145.67;100.00;66521.78;4997122;28;20088;-69
2022/01/05 10:44:11;;;;;;;80.38;11.73;;;;;;;-145.67;100.00;66521.78;5011742;28;20037;-69
2022/01/05 10:46:43;;;;;;;70.30;10.20;;;;;;;-145.67;100.00;66521.78;4996853;28;20065;-69
2022/01/05 10:49:10;;;;;;;74.00;11.00;;;;;;;-145.67;100.00;66521.78;5006556;28;20052;-70
2022/01/05 10:51:41;;;;;;;55.60;8.90;;;;;;;-145.67;100.00;66521.78;5011344;28;20519;-69
2022/01/05 10:54:15;;;;;;;49.00;8.52;;;;;;;-145.67;100.00;66521.78;4997074;28;20415;-68
2022/01/05 10:56:45;;;;;;;54.20;8.20;;;;;;;-145.67;100.00;66521.78;5000779;28;20553;-69
2022/01/05 10:59:14;;;;;;;60.88;9.95;;;;;;;-145.67;100.00;66521.78;4996927;28;20579;-71
2022/01/05 11:01:41;;;;;;;58.70;9.77;;;;;;;-145.67;100.00;66521.78;5005687;28;20029;-69
2022/01/05 11:04:23;;;;;;;86.18;11.68;;;;;;;-145.67;100.00;66521.78;4995967;28;20049;-67